Time;durP1;ratioP1;P1;durP2;ratioP2;P2;SDS_P1;SDS_P2;PMS_P1;PMS_P2;Temp;Humidity;BMP_temperature;BMP_pressure;BME280_temperature;BME280_humidity;BME280_pressure;Samples;Min_cycle;Max_cycle;Signal;HPM_P1;HPM_P2
2021/06/21 00:00:36;;;;;;;1.65;1.30;;;;;;;;;;5007881;28;20125;-54
2021/06/21 00:03:03;;;;;;;6.00;1.60;;;;;;;;;;4998336;28;20530;-53
2021/06/21 00:05:29;;;;;;;3.63;1.00;;;;;;;;;;5005579;28;20058;-54
2021/06/21 00:07:56;;;;;;;3.30;1.35;;;;;;;;;;5006713;28;20538;-54
2021/06/21 00:10:23;;;;;;;7.88;1.52;;;;;;;;;;5010204;28;20073;-54
2021/06/21 00:12:49;;;;;;;5.95;0.98;;;;;;;;;;5006625;28;20054;-54
2021/06/21 00:15:21;;;;;;;6.03;1.60;;;;;;;;;;5008232;28;20125;-54
2021/06/21 00:17:49;;;;;;;4.63;1.30;;;;;;;;;;5008037;28;20049;-54
2021/06/21 00:20:16;;;;;;;5.38;1.00;;;;;;;;;;5006672;28;20065;-54
2021/06/21 00:22:43;;;;;;;5.30;1.02;;;;;;;;;;5010084;28;20490;-54
2021/06/21 00:25:11;;;;;;;7.10;1.20;;;;;;;;;;5008368;28;20418;-54
2021/06/21 00:27:39;;;;;;;9.40;1.48;;;;;;;;;;5009125;28;20498;-53
2021/06/21 00:30:07;;;;;;;7.80;2.38;;;;;;;;;;5009290;28;20034;-55
2021/06/21 00:32:34;;;;;;;14.05;1.80;;;;;;;;;;5009990;28;20108;-54
2021/06/21 00:35:01;;;;;;;6.53;1.50;;;;;;;;;;5012607;28;20108;-54
2021/06/21 00:37:27;;;;;;;4.22;1.20;;;;;;;;;;5008932;28;20030;-55
2021/06/21 00:39:54;;;;;;;3.72;1.70;;;;;;;;;;5025340;28;20101;-54
2021/06/21 00:42:21;;;;;;;5.07;1.38;;;;;;;;;;5012768;28;20042;-55
2021/06/21 00:44:48;;;;;;;5.03;1.10;;;;;;;;;;5012015;28;20049;-53
2021/06/21 00:47:14;;;;;;;5.63;1.00;;;;;;;;;;5012712;28;20069;-54
2021/06/21 00:49:41;;;;;;;4.70;1.42;;;;;;;;;;5010405;28;20095;-54
2021/06/21 00:52:11;;;;;;;6.47;1.45;;;;;;;;;;5003630;28;20047;-54
2021/06/21 00:54:38;;;;;;;5.05;1.77;;;;;;;;;;5013235;28;20133;-54
2021/06/21 00:57:05;;;;;;;2.90;1.73;;;;;;;;;;5011010;28;20042;-55
2021/06/21 00:59:32;;;;;;;3.85;1.30;;;;;;;;;;5011049;28;20429;-54
2021/06/21 01:01:59;;;;;;;2.75;1.67;;;;;;;;;;5010545;28;20058;-54
2021/06/21 01:04:25;;;;;;;12.73;1.92;;;;;;;;;;5009863;28;20809;-54
2021/06/21 01:06:52;;;;;;;4.65;1.60;;;;;;;;;;5012488;28;20477;-53
2021/06/21 01:09:19;;;;;;;4.25;1.50;;;;;;;;;;5008938;28;20033;-54
2021/06/21 01:11:57;;;;;;;7.35;1.65;;;;;;;;;;5011154;28;20077;-54
2021/06/21 01:14:29;;;;;;;8.75;2.28;;;;;;;;;;5011011;28;20041;-54
2021/06/21 01:17:09;;;;;;;6.72;1.30;;;;;;;;;;5008036;28;20050;-54
2021/06/21 01:19:51;;;;;;;7.55;1.60;;;;;;;;;;5010367;28;20038;-54
2021/06/21 01:22:26;;;;;;;6.85;1.30;;;;;;;;;;5009853;28;20041;-54
2021/06/21 01:24:56;;;;;;;6.03;2.17;;;;;;;;;;5009013;28;20509;-54
2021/06/21 01:27:28;;;;;;;4.22;1.40;;;;;;;;;;5011663;28;20137;-54
2021/06/21 01:30:04;;;;;;;8.23;1.70;;;;;;;;;;5010967;28;20058;-54
2021/06/21 01:32:50;;;;;;;5.35;1.20;;;;;;;;;;5009585;28;20113;-54
2021/06/21 01:35:20;;;;;;;4.88;1.40;;;;;;;;;;5010822;28;20040;-53
2021/06/21 01:37:51;;;;;;;3.63;1.02;;;;;;;;;;5008082;28;20030;-54
2021/06/21 01:40:19;;;;;;;12.07;1.92;;;;;;;;;;5010488;28;20069;-54
2021/06/21 01:42:49;;;;;;;6.88;1.63;;;;;;;;;;5011373;28;20038;-54
2021/06/21 01:45:17;;;;;;;4.65;1.75;;;;;;;;;;5006977;28;20618;-54
2021/06/21 01:47:49;;;;;;;6.28;1.20;;;;;;;;;;5015613;28;20049;-53
2021/06/21 01:50:20;;;;;;;6.93;1.33;;;;;;;;;;5010516;28;20441;-54
2021/06/21 01:52:50;;;;;;;2.08;1.38;;;;;;;;;;4994392;28;20529;-54
2021/06/21 01:55:19;;;;;;;3.83;1.25;;;;;;;;;;5011838;28;20077;-53
2021/06/21 01:57:47;;;;;;;3.47;1.17;;;;;;;;;;5009231;28;20033;-53
2021/06/21 02:00:14;;;;;;;6.40;1.80;;;;;;;;;;5011412;28;20125;-53
2021/06/21 02:02:42;;;;;;;4.90;1.45;;;;;;;;;;5010358;28;20052;-54
2021/06/21 02:05:12;;;;;;;3.22;1.25;;;;;;;;;;5007398;28;20038;-54
2021/06/21 02:07:39;;;;;;;9.80;1.83;;;;;;;;;;5011861;28;20572;-54
2021/06/21 02:10:07;;;;;;;4.78;1.27;;;;;;;;;;5009993;28;20112;-55
2021/06/21 02:12:34;;;;;;;5.57;1.15;;;;;;;;;;5009656;28;20042;-54
2021/06/21 02:15:01;;;;;;;5.78;1.42;;;;;;;;;;5010805;28;20528;-54
2021/06/21 02:17:29;;;;;;;4.00;1.15;;;;;;;;;;5008923;28;20451;-54
2021/06/21 02:19:57;;;;;;;5.13;1.42;;;;;;;;;;5010280;28;20476;-54
2021/06/21 02:22:25;;;;;;;6.63;1.75;;;;;;;;;;5009756;28;20069;-54
2021/06/21 02:24:52;;;;;;;3.70;1.30;;;;;;;;;;5008528;28;20057;-54
2021/06/21 02:27:19;;;;;;;5.18;2.15;;;;;;;;;;5009519;28;20100;-54
2021/06/21 02:29:49;;;;;;;2.53;1.35;;;;;;;;;;5008977;28;20114;-53
2021/06/21 02:32:16;;;;;;;6.05;1.83;;;;;;;;;;5010829;28;20065;-54
2021/06/21 02:34:43;;;;;;;7.00;1.08;;;;;;;;;;5007163;28;20033;-54
2021/06/21 02:37:11;;;;;;;7.07;1.33;;;;;;;;;;5006978;28;20104;-54
2021/06/21 02:39:38;;;;;;;7.85;2.45;;;;;;;;;;5010477;28;20496;-54
2021/06/21 02:42:05;;;;;;;4.75;2.05;;;;;;;;;;5007218;28;20092;-54
2021/06/21 02:44:32;;;;;;;3.10;1.40;;;;;;;;;;5010119;28;20117;-55
2021/06/21 02:46:59;;;;;;;6.15;2.28;;;;;;;;;;5008661;28;20050;-55
2021/06/21 02:49:26;;;;;;;4.10;1.55;;;;;;;;;;5008087;28;20052;-53
2021/06/21 02:51:56;;;;;;;7.18;1.48;;;;;;;;;;5011218;28;20116;-55
2021/06/21 02:54:35;;;;;;;9.07;1.90;;;;;;;;;;5008066;28;20034;-55
2021/06/21 02:57:26;;;;;;;6.95;1.35;;;;;;;;;;5009432;28;20034;-54
2021/06/21 02:59:54;;;;;;;8.00;1.63;;;;;;;;;;5010443;28;20034;-54
2021/06/21 03:02:21;;;;;;;4.53;1.55;;;;;;;;;;5008260;28;20038;-53
2021/06/21 03:04:48;;;;;;;8.15;1.90;;;;;;;;;;5009991;28;20052;-54
2021/06/21 03:07:17;;;;;;;6.53;1.67;;;;;;;;;;5008446;28;20212;-54
2021/06/21 03:09:46;;;;;;;3.70;1.42;;;;;;;;;;5006304;28;20049;-54
2021/06/21 03:12:18;;;;;;;5.22;1.48;;;;;;;;;;5010060;28;20046;-54
2021/06/21 03:14:46;;;;;;;9.40;2.00;;;;;;;;;;5006666;28;20069;-53
2021/06/21 03:17:14;;;;;;;4.50;1.30;;;;;;;;;;5007837;28;20069;-54
2021/06/21 03:19:42;;;;;;;10.10;2.05;;;;;;;;;;5009247;28;20508;-53
2021/06/21 03:22:09;;;;;;;6.93;2.10;;;;;;;;;;5006795;28;20045;-54
2021/06/21 03:24:35;;;;;;;3.92;1.77;;;;;;;;;;5011071;28;20137;-52
2021/06/21 03:27:02;;;;;;;5.65;1.50;;;;;;;;;;5006803;28;20128;-54
2021/06/21 03:29:30;;;;;;;4.85;1.20;;;;;;;;;;5008093;28;20080;-55
2021/06/21 03:31:56;;;;;;;7.53;2.63;;;;;;;;;;5010592;28;20132;-54
2021/06/21 03:34:24;;;;;;;10.93;2.47;;;;;;;;;;5006438;28;20069;-54
2021/06/21 03:36:51;;;;;;;4.50;1.85;;;;;;;;;;5010329;28;20030;-54
2021/06/21 03:39:18;;;;;;;3.00;1.33;;;;;;;;;;5007024;28;20209;-53
2021/06/21 03:41:45;;;;;;;5.13;1.33;;;;;;;;;;5006772;28;20120;-54
2021/06/21 03:44:12;;;;;;;7.28;1.55;;;;;;;;;;5010090;28;20046;-54
2021/06/21 03:46:39;;;;;;;6.55;1.33;;;;;;;;;;5006056;28;20141;-54
2021/06/21 03:49:05;;;;;;;7.57;1.52;;;;;;;;;;5019849;28;20073;-54
2021/06/21 03:51:32;;;;;;;4.03;1.30;;;;;;;;;;5007218;28;20482;-55
2021/06/21 03:53:59;;;;;;;4.40;1.40;;;;;;;;;;5007000;28;20069;-54
2021/06/21 03:56:26;;;;;;;6.18;2.20;;;;;;;;;;5010435;28;20072;-54
2021/06/21 03:58:52;;;;;;;4.50;1.90;;;;;;;;;;5007378;28;20049;-53
2021/06/21 04:01:19;;;;;;;5.50;1.80;;;;;;;;;;5009206;28;20065;-54
2021/06/21 04:03:46;;;;;;;6.78;1.88;;;;;;;;;;5008324;28;20064;-54
2021/06/21 04:06:13;;;;;;;7.05;2.03;;;;;;;;;;5008691;28;20557;-54
2021/06/21 04:08:40;;;;;;;7.20;2.15;;;;;;;;;;5012578;28;20458;-54
2021/06/21 04:11:07;;;;;;;5.72;1.70;;;;;;;;;;5012242;28;20054;-53
2021/06/21 04:13:34;;;;;;;9.13;1.60;;;;;;;;;;5011813;28;20064;-54
2021/06/21 04:16:01;;;;;;;5.93;1.40;;;;;;;;;;5013193;28;20557;-55
2021/06/21 04:18:28;;;;;;;5.80;1.77;;;;;;;;;;5009255;28;20038;-54
2021/06/21 04:20:54;;;;;;;6.03;1.50;;;;;;;;;;5013254;28;20383;-54
2021/06/21 04:23:21;;;;;;;8.18;1.52;;;;;;;;;;5009512;28;20089;-54
2021/06/21 04:25:48;;;;;;;5.07;1.83;;;;;;;;;;5010374;28;20100;-54
2021/06/21 04:28:15;;;;;;;6.20;1.42;;;;;;;;;;5013217;28;20038;-54
2021/06/21 04:30:44;;;;;;;10.20;2.00;;;;;;;;;;5009010;28;20085;-54
2021/06/21 04:33:10;;;;;;;7.40;1.40;;;;;;;;;;5014059;28;20080;-54
2021/06/21 04:35:37;;;;;;;5.78;1.50;;;;;;;;;;5011252;28;20041;-54
2021/06/21 04:38:04;;;;;;;7.15;1.38;;;;;;;;;;5011729;28;20066;-54
2021/06/21 04:40:32;;;;;;;12.38;2.42;;;;;;;;;;5013862;28;20427;-53
2021/06/21 04:42:58;;;;;;;9.63;2.70;;;;;;;;;;5008578;28;20034;-53
2021/06/21 04:45:25;;;;;;;4.25;1.95;;;;;;;;;;5013470;28;20084;-54
2021/06/21 04:47:52;;;;;;;6.22;2.47;;;;;;;;;;5011721;28;20052;-54
2021/06/21 04:50:19;;;;;;;5.80;2.35;;;;;;;;;;5011708;28;20038;-54
2021/06/21 04:52:48;;;;;;;7.03;1.75;;;;;;;;;;5012324;28;20504;-53
2021/06/21 04:55:16;;;;;;;5.43;1.63;;;;;;;;;;5008706;28;20125;-54
2021/06/21 04:57:44;;;;;;;3.25;1.95;;;;;;;;;;5012503;28;20116;-54
2021/06/21 05:00:12;;;;;;;3.67;1.50;;;;;;;;;;5015507;28;20095;-55
2021/06/21 05:02:39;;;;;;;4.78;1.58;;;;;;;;;;5013167;28;20042;-54
2021/06/21 05:05:07;;;;;;;5.53;1.30;;;;;;;;;;5012595;28;20099;-54
2021/06/21 05:07:34;;;;;;;6.60;2.85;;;;;;;;;;5008863;28;20048;-53
2021/06/21 05:10:02;;;;;;;7.07;1.60;;;;;;;;;;5011058;28;20081;-54
2021/06/21 05:12:28;;;;;;;13.13;2.50;;;;;;;;;;5012331;28;20423;-54
2021/06/21 05:14:55;;;;;;;12.43;2.10;;;;;;;;;;5011611;28;20065;-54
2021/06/21 05:17:22;;;;;;;5.68;1.45;;;;;;;;;;4998025;28;20067;-53
2021/06/21 05:19:49;;;;;;;13.40;2.22;;;;;;;;;;5005993;28;20030;-54
2021/06/21 05:22:15;;;;;;;3.95;1.70;;;;;;;;;;5005929;28;20062;-54
2021/06/21 05:24:42;;;;;;;6.10;1.83;;;;;;;;;;5012356;28;20045;-59
2021/06/21 05:27:09;;;;;;;7.57;1.63;;;;;;;;;;5007892;28;20049;-58
2021/06/21 05:29:36;;;;;;;6.57;1.45;;;;;;;;;;5013381;28;20061;-59
2021/06/21 05:32:03;;;;;;;4.07;1.63;;;;;;;;;;5010266;28;20041;-57
2021/06/21 05:34:30;;;;;;;8.48;2.58;;;;;;;;;;5005430;28;20340;-58
2021/06/21 05:36:57;;;;;;;8.10;2.47;;;;;;;;;;5012575;28;20057;-58
2021/06/21 05:39:24;;;;;;;8.82;2.15;;;;;;;;;;5010527;28;20037;-59
2021/06/21 05:41:50;;;;;;;12.57;2.10;;;;;;;;;;5011828;28;20096;-58
2021/06/21 05:44:17;;;;;;;7.75;1.55;;;;;;;;;;5011716;28;20064;-58
2021/06/21 05:46:45;;;;;;;5.28;1.45;;;;;;;;;;5007958;28;20034;-58
2021/06/21 05:49:12;;;;;;;5.78;1.73;;;;;;;;;;5012630;28;20069;-58
2021/06/21 05:51:38;;;;;;;5.78;1.52;;;;;;;;;;5008629;28;20543;-58
2021/06/21 05:54:05;;;;;;;8.20;1.50;;;;;;;;;;5007001;28;20046;-59
2021/06/21 05:56:32;;;;;;;2.42;1.55;;;;;;;;;;5008256;28;20445;-58
2021/06/21 05:58:59;;;;;;;2.83;1.30;;;;;;;;;;5010592;28;20096;-58
2021/06/21 06:01:25;;;;;;;2.97;1.50;;;;;;;;;;5000161;28;20043;-57
2021/06/21 06:03:53;;;;;;;7.25;1.55;;;;;;;;;;5003818;28;20030;-58
2021/06/21 06:06:19;;;;;;;9.57;2.00;;;;;;;;;;5009143;28;20434;-59
2021/06/21 06:08:46;;;;;;;7.00;1.83;;;;;;;;;;5009358;28;20042;-59
2021/06/21 06:11:13;;;;;;;6.32;1.35;;;;;;;;;;5008328;28;20080;-58
2021/06/21 06:13:40;;;;;;;15.00;1.63;;;;;;;;;;5023763;28;20607;-57
2021/06/21 06:16:10;;;;;;;8.80;1.63;;;;;;;;;;5013009;28;20030;-59
2021/06/21 06:18:37;;;;;;;5.20;1.50;;;;;;;;;;5009780;28;20038;-58
2021/06/21 06:21:04;;;;;;;3.28;1.40;;;;;;;;;;5010984;28;20116;-58
2021/06/21 06:23:37;;;;;;;3.05;1.42;;;;;;;;;;5000224;28;20398;-58
2021/06/21 06:26:04;;;;;;;10.95;1.75;;;;;;;;;;5011123;28;20521;-59
2021/06/21 06:28:31;;;;;;;7.50;1.70;;;;;;;;;;5007493;28;20100;-59
2021/06/21 06:30:58;;;;;;;6.47;1.30;;;;;;;;;;5006544;28;20057;-59
2021/06/21 06:33:24;;;;;;;9.98;1.77;;;;;;;;;;5011646;28;20062;-59
2021/06/21 06:35:51;;;;;;;8.80;1.23;;;;;;;;;;5008853;28;20034;-59
2021/06/21 06:38:19;;;;;;;8.65;1.10;;;;;;;;;;5010700;28;20493;-59
2021/06/21 06:40:46;;;;;;;6.57;1.50;;;;;;;;;;5007227;28;20046;-59
2021/06/21 06:43:13;;;;;;;3.60;1.00;;;;;;;;;;5009342;28;20038;-59
2021/06/21 06:45:40;;;;;;;3.95;1.83;;;;;;;;;;5010126;28;20453;-58
2021/06/21 06:48:07;;;;;;;6.25;0.90;;;;;;;;;;5008342;28;20046;-59
2021/06/21 06:50:33;;;;;;;7.57;1.10;;;;;;;;;;5009590;28;20474;-59
2021/06/21 06:53:01;;;;;;;7.13;0.98;;;;;;;;;;5008525;28;20049;-59
2021/06/21 06:58:13;;;;;;;8.82;1.25;;;;;;;;;;5009320;28;20034;-58
2021/06/21 07:00:40;;;;;;;5.18;1.15;;;;;;;;;;5006019;28;20096;-58
2021/06/21 07:03:08;;;;;;;9.18;1.42;;;;;;;;;;5007868;28;20034;-58
2021/06/21 07:05:35;;;;;;;3.47;1.42;;;;;;;;;;5011097;28;20054;-59
2021/06/21 07:08:02;;;;;;;6.50;1.30;;;;;;;;;;5005946;28;20062;-59
2021/06/21 07:10:29;;;;;;;10.20;1.42;;;;;;;;;;5009559;28;20061;-58
2021/06/21 07:12:56;;;;;;;4.80;1.20;;;;;;;;;;5007380;28;20077;-59
2021/06/21 07:15:23;;;;;;;5.50;0.90;;;;;;;;;;5022027;28;20117;-59
2021/06/21 07:17:51;;;;;;;1.77;0.90;;;;;;;;;;5010827;28;20034;-59
2021/06/21 07:20:18;;;;;;;4.55;1.10;;;;;;;;;;5004859;28;20069;-59
2021/06/21 07:22:45;;;;;;;3.38;0.85;;;;;;;;;;5002178;28;20089;-60
2021/06/21 07:25:12;;;;;;;9.98;0.85;;;;;;;;;;5007539;28;20077;-59
2021/06/21 07:27:38;;;;;;;4.13;0.80;;;;;;;;;;5007354;28;20072;-59
2021/06/21 07:30:06;;;;;;;4.35;1.55;;;;;;;;;;5010565;28;20108;-59
2021/06/21 07:32:32;;;;;;;4.53;0.80;;;;;;;;;;5006803;28;20053;-59
2021/06/21 07:34:59;;;;;;;3.88;0.90;;;;;;;;;;5010004;28;20041;-59
2021/06/21 07:37:26;;;;;;;7.93;0.90;;;;;;;;;;5007101;28;20092;-59
2021/06/21 07:39:53;;;;;;;8.05;1.05;;;;;;;;;;5005550;28;20052;-59
2021/06/21 07:42:20;;;;;;;7.95;0.80;;;;;;;;;;5009801;28;20490;-60
2021/06/21 07:44:46;;;;;;;8.70;1.13;;;;;;;;;;5008451;28;20034;-59
2021/06/21 07:47:13;;;;;;;5.85;0.80;;;;;;;;;;5007884;28;20108;-58
2021/06/21 07:49:40;;;;;;;6.63;0.90;;;;;;;;;;5008808;28;20034;-59
2021/06/21 07:52:07;;;;;;;2.70;1.38;;;;;;;;;;5007431;28;20041;-60
2021/06/21 07:54:34;;;;;;;5.05;0.80;;;;;;;;;;5009479;28;20394;-59
2021/06/21 07:57:01;;;;;;;6.35;1.30;;;;;;;;;;5007335;28;20049;-60
2021/06/21 07:59:28;;;;;;;7.00;1.17;;;;;;;;;;5006663;28;20030;-59
2021/06/21 08:01:54;;;;;;;2.00;0.70;;;;;;;;;;5009643;28;20042;-60
2021/06/21 08:04:21;;;;;;;15.40;1.50;;;;;;;;;;5008376;28;20042;-59
2021/06/21 08:06:48;;;;;;;3.40;0.88;;;;;;;;;;5008613;28;20057;-60
2021/06/21 08:09:15;;;;;;;4.38;0.82;;;;;;;;;;5007520;28;20037;-60
2021/06/21 08:11:41;;;;;;;6.07;1.42;;;;;;;;;;5008055;28;20050;-60
2021/06/21 08:14:08;;;;;;;3.95;0.80;;;;;;;;;;5009904;28;20041;-60
2021/06/21 08:16:35;;;;;;;6.15;0.75;;;;;;;;;;5005293;28;20038;-59
2021/06/21 08:19:02;;;;;;;2.83;0.90;;;;;;;;;;5008576;28;20041;-60
2021/06/21 08:21:31;;;;;;;2.00;0.70;;;;;;;;;;5007543;28;20049;-60
2021/06/21 08:23:58;;;;;;;3.80;0.77;;;;;;;;;;5007825;28;20046;-58
2021/06/21 08:26:25;;;;;;;4.75;0.70;;;;;;;;;;5009005;28;20042;-61
2021/06/21 08:28:52;;;;;;;3.88;0.77;;;;;;;;;;5005075;28;20045;-59
2021/06/21 08:31:19;;;;;;;5.93;0.60;;;;;;;;;;5010601;28;20053;-59
2021/06/21 08:33:46;;;;;;;9.63;0.93;;;;;;;;;;5010038;28;20124;-60
2021/06/21 08:36:13;;;;;;;5.57;0.70;;;;;;;;;;5017325;28;20104;-60
2021/06/21 08:38:40;;;;;;;1.88;0.68;;;;;;;;;;5009080;28;20068;-59
2021/06/21 08:41:07;;;;;;;4.53;0.70;;;;;;;;;;5006513;28;20088;-60
2021/06/21 08:43:34;;;;;;;3.67;0.63;;;;;;;;;;5008459;28;20517;-60
2021/06/21 08:46:01;;;;;;;5.05;0.82;;;;;;;;;;5010571;28;20046;-60
2021/06/21 08:48:29;;;;;;;2.85;0.68;;;;;;;;;;5019003;28;20525;-60
2021/06/21 08:51:00;;;;;;;5.13;0.70;;;;;;;;;;5009322;28;20510;-60
2021/06/21 08:53:27;;;;;;;6.78;0.60;;;;;;;;;;5007060;28;20512;-60
2021/06/21 08:55:54;;;;;;;3.83;1.13;;;;;;;;;;5009781;28;20069;-61
2021/06/21 08:58:21;;;;;;;5.45;1.38;;;;;;;;;;5012287;28;20429;-60
2021/06/21 09:00:47;;;;;;;3.28;0.55;;;;;;;;;;5009760;28;20418;-60
2021/06/21 09:03:14;;;;;;;6.80;0.77;;;;;;;;;;5012527;28;20069;-60
2021/06/21 09:05:41;;;;;;;5.57;1.25;;;;;;;;;;5010063;28;20038;-60
2021/06/21 09:08:09;;;;;;;2.50;0.70;;;;;;;;;;5008932;28;20053;-60
2021/06/21 09:10:37;;;;;;;6.78;0.70;;;;;;;;;;5012535;28;20046;-60
2021/06/21 09:13:06;;;;;;;6.88;0.60;;;;;;;;;;5009254;28;20431;-60
2021/06/21 09:15:34;;;;;;;2.75;0.50;;;;;;;;;;5011811;28;20072;-61
2021/06/21 09:18:20;;;;;;;10.00;0.93;;;;;;;;;;5010171;28;20441;-61
2021/06/21 09:20:47;;;;;;;7.90;0.68;;;;;;;;;;5009625;28;20030;-62
2021/06/21 09:23:14;;;;;;;5.70;1.05;;;;;;;;;;5011758;28;20557;-60
2021/06/21 09:25:42;;;;;;;6.20;0.60;;;;;;;;;;5008220;28;20050;-60
2021/06/21 09:28:08;;;;;;;7.47;0.63;;;;;;;;;;5010741;28;20383;-60
2021/06/21 09:30:48;;;;;;;4.72;0.60;;;;;;;;;;5011229;28;20096;-60
2021/06/21 09:33:29;;;;;;;5.38;0.80;;;;;;;;;;5009989;28;20037;-60
2021/06/21 09:35:55;;;;;;;9.02;1.13;;;;;;;;;;5010660;28;20485;-61
2021/06/21 09:38:22;;;;;;;9.07;0.63;;;;;;;;;;5009801;28;20037;-60
2021/06/21 09:40:50;;;;;;;4.75;0.70;;;;;;;;;;5004245;28;20558;-61
2021/06/21 09:43:20;;;;;;;15.23;1.00;;;;;;;;;;5011846;28;20038;-60
2021/06/21 09:46:09;;;;;;;9.05;0.95;;;;;;;;;;5009593;28;20033;-60
2021/06/21 09:48:38;;;;;;;7.75;0.85;;;;;;;;;;4992707;28;20073;-60
2021/06/21 09:51:21;;;;;;;6.25;0.77;;;;;;;;;;5021029;28;20049;-60
2021/06/21 09:53:52;;;;;;;7.07;0.70;;;;;;;;;;5009579;28;20537;-61
2021/06/21 09:56:29;;;;;;;7.72;0.80;;;;;;;;;;5016860;28;20739;-60
2021/06/21 09:58:56;;;;;;;11.00;1.02;;;;;;;;;;5009808;28;20446;-60
2021/06/21 10:01:27;;;;;;;7.97;0.90;;;;;;;;;;5008884;28;20066;-61
2021/06/21 10:03:54;;;;;;;5.60;0.90;;;;;;;;;;5010239;28;20048;-61
2021/06/21 10:06:21;;;;;;;5.97;0.95;;;;;;;;;;5008970;28;20136;-60
2021/06/21 10:08:49;;;;;;;7.32;1.05;;;;;;;;;;5008458;28;20046;-61
2021/06/21 10:11:36;;;;;;;3.78;0.90;;;;;;;;;;5011431;28;20046;-61
2021/06/21 10:14:04;;;;;;;8.85;1.00;;;;;;;;;;5008829;28;20542;-60
2021/06/21 10:16:31;;;;;;;13.52;1.30;;;;;;;;;;5008191;28;20046;-60
2021/06/21 10:18:58;;;;;;;12.18;1.48;;;;;;;;;;5012371;28;20046;-60
2021/06/21 10:21:25;;;;;;;4.50;0.70;;;;;;;;;;5008067;28;20068;-62
2021/06/21 10:23:52;;;;;;;5.65;0.80;;;;;;;;;;5011772;28;20038;-61
2021/06/21 10:26:19;;;;;;;13.82;0.90;;;;;;;;;;5008322;28;20116;-62
2021/06/21 10:28:47;;;;;;;8.77;0.68;;;;;;;;;;5008955;28;20038;-61
2021/06/21 10:31:14;;;;;;;4.72;0.70;;;;;;;;;;5009449;28;20120;-61
2021/06/21 10:33:41;;;;;;;11.00;0.70;;;;;;;;;;5007803;28;20056;-61
2021/06/21 10:36:08;;;;;;;12.30;0.95;;;;;;;;;;5010778;28;20429;-61
2021/06/21 10:38:35;;;;;;;6.85;0.70;;;;;;;;;;5003306;28;20730;-60
2021/06/21 10:41:08;;;;;;;8.77;1.17;;;;;;;;;;5002184;28;20057;-61
2021/06/21 10:43:45;;;;;;;17.95;1.08;;;;;;;;;;5005373;28;20478;-60
2021/06/21 10:46:18;;;;;;;5.55;1.15;;;;;;;;;;5000898;28;20092;-61
2021/06/21 10:48:57;;;;;;;11.02;1.10;;;;;;;;;;5002999;28;20107;-60
2021/06/21 10:51:34;;;;;;;6.60;0.70;;;;;;;;;;5004864;28;20125;-61
2021/06/21 10:54:01;;;;;;;6.35;0.77;;;;;;;;;;5004701;28;20099;-60
2021/06/21 10:56:41;;;;;;;9.30;1.00;;;;;;;;;;5005048;28;20096;-61
2021/06/21 10:59:19;;;;;;;10.10;0.70;;;;;;;;;;5006061;28;20030;-61
2021/06/21 11:01:49;;;;;;;7.55;0.98;;;;;;;;;;4996119;28;20057;-60
2021/06/21 11:04:31;;;;;;;10.23;0.80;;;;;;;;;;4995802;28;20473;-61
2021/06/21 11:07:10;;;;;;;10.80;0.88;;;;;;;;;;5006048;28;20072;-61
2021/06/21 11:09:47;;;;;;;7.38;0.70;;;;;;;;;;4993353;28;20038;-60
2021/06/21 11:12:26;;;;;;;9.05;1.00;;;;;;;;;;5009812;28;20038;-60
2021/06/21 11:17:52;;;;;;;6.88;0.70;;;;;;;;;;4991945;28;20042;-60
2021/06/21 11:20:44;;;;;;;12.00;0.90;;;;;;;;;;5003934;28;20046;-60
2021/06/21 11:23:31;;;;;;;7.13;0.70;;;;;;;;;;4998974;28;20056;-61
2021/06/21 11:25:57;;;;;;;15.77;1.48;;;;;;;;;;5004897;28;20080;-61
2021/06/21 11:28:41;;;;;;;14.25;1.25;;;;;;;;;;5003813;28;20133;-61
2021/06/21 11:31:20;;;;;;;15.73;1.88;;;;;;;;;;4999000;28;20429;-59
2021/06/21 11:33:53;;;;;;;10.70;1.08;;;;;;;;;;5010298;28;20072;-60
2021/06/21 11:36:39;;;;;;;7.88;1.30;;;;;;;;;;5007184;28;20061;-61
2021/06/21 11:39:22;;;;;;;14.93;1.13;;;;;;;;;;5003504;28;20041;-61
2021/06/21 11:41:54;;;;;;;21.20;1.15;;;;;;;;;;5007940;28;20054;-60
2021/06/21 11:44:36;;;;;;;9.98;1.30;;;;;;;;;;5007202;28;20046;-59
2021/06/21 11:47:23;;;;;;;14.30;1.15;;;;;;;;;;4993187;28;20049;-60
2021/06/21 11:49:52;;;;;;;20.95;1.80;;;;;;;;;;5009005;28;20481;-60
2021/06/21 11:52:22;;;;;;;18.77;1.10;;;;;;;;;;5006938;28;20514;-60
2021/06/21 11:54:49;;;;;;;16.92;1.67;;;;;;;;;;4999268;28;20495;-60
2021/06/21 11:57:17;;;;;;;20.50;2.15;;;;;;;;;;5007546;28;20057;-60
2021/06/21 11:59:45;;;;;;;14.10;1.27;;;;;;;;;;5007036;28;20066;-59
2021/06/21 12:02:19;;;;;;;15.05;1.85;;;;;;;;;;5008953;28;20038;-60
2021/06/21 12:04:48;;;;;;;12.60;1.05;;;;;;;;;;5006957;28;20061;-60
2021/06/21 12:07:29;;;;;;;15.77;0.90;;;;;;;;;;4996109;28;20506;-60
2021/06/21 12:09:56;;;;;;;12.02;1.02;;;;;;;;;;5005426;28;20088;-60
2021/06/21 12:12:24;;;;;;;16.73;1.65;;;;;;;;;;5003011;28;20045;-60
2021/06/21 12:14:51;;;;;;;17.98;0.93;;;;;;;;;;5008307;28;20129;-60
2021/06/21 12:17:25;;;;;;;18.92;1.15;;;;;;;;;;5012250;28;20378;-60
2021/06/21 12:19:58;;;;;;;20.50;1.38;;;;;;;;;;5009434;28;20038;-60
2021/06/21 12:22:25;;;;;;;21.50;1.35;;;;;;;;;;5008186;28;20165;-60
2021/06/21 12:24:52;;;;;;;15.73;1.30;;;;;;;;;;5001879;28;20103;-60
2021/06/21 12:27:19;;;;;;;19.75;1.30;;;;;;;;;;5007664;28;20104;-59
2021/06/21 12:29:45;;;;;;;13.68;1.20;;;;;;;;;;5007556;28;20049;-60
2021/06/21 12:32:13;;;;;;;12.75;1.35;;;;;;;;;;5011650;28;20100;-60
2021/06/21 12:34:48;;;;;;;18.02;1.58;;;;;;;;;;5008784;28;20097;-60
2021/06/21 12:37:20;;;;;;;11.77;1.27;;;;;;;;;;5002076;28;20092;-55
2021/06/21 12:39:51;;;;;;;13.43;0.90;;;;;;;;;;5006426;28;20125;-58
2021/06/21 12:42:19;;;;;;;16.43;1.27;;;;;;;;;;5010269;28;20041;-58
2021/06/21 12:44:46;;;;;;;19.90;2.08;;;;;;;;;;4997259;28;20039;-58
2021/06/21 12:47:17;;;;;;;25.63;1.75;;;;;;;;;;5010625;28;20592;-58
2021/06/21 12:49:44;;;;;;;15.20;1.15;;;;;;;;;;5010851;28;20132;-47
2021/06/21 12:52:11;;;;;;;12.00;1.85;;;;;;;;;;5012750;28;20112;-48
2021/06/21 12:54:38;;;;;;;22.60;1.40;;;;;;;;;;5008085;28;20379;-46
2021/06/21 12:57:04;;;;;;;28.95;1.33;;;;;;;;;;4997530;28;20042;-45
2021/06/21 12:59:33;;;;;;;12.40;1.40;;;;;;;;;;5013553;28;20038;-47
2021/06/21 13:02:02;;;;;;;14.18;1.05;;;;;;;;;;5008336;28;20075;-48
2021/06/21 13:04:29;;;;;;;21.27;1.83;;;;;;;;;;5016665;28;20046;-47
2021/06/21 13:06:57;;;;;;;21.20;1.30;;;;;;;;;;5010209;28;20498;-47
2021/06/21 13:09:28;;;;;;;16.73;1.10;;;;;;;;;;5009693;28;20041;-50
2021/06/21 13:12:01;;;;;;;22.02;1.30;;;;;;;;;;5013478;28;20099;-47
2021/06/21 13:14:35;;;;;;;20.38;1.48;;;;;;;;;;5010373;28;20414;-47
2021/06/21 13:17:09;;;;;;;29.50;1.83;;;;;;;;;;5010004;28;20418;-46
2021/06/21 13:19:45;;;;;;;13.93;1.92;;;;;;;;;;5011334;28;20061;-48
2021/06/21 13:22:32;;;;;;;16.20;1.92;;;;;;;;;;5009317;28;20478;-46
2021/06/21 13:25:11;;;;;;;16.35;1.83;;;;;;;;;;5010162;28;20618;-47
2021/06/21 13:27:47;;;;;;;27.42;2.58;;;;;;;;;;5012196;28;20046;-46
2021/06/21 13:30:20;;;;;;;12.68;1.50;;;;;;;;;;5009257;28;20398;-48
2021/06/21 13:32:48;;;;;;;19.20;1.63;;;;;;;;;;5011717;28;20038;-50
2021/06/21 13:35:15;;;;;;;10.68;1.35;;;;;;;;;;5010365;28;20042;-46
2021/06/21 13:37:43;;;;;;;17.55;1.45;;;;;;;;;;5008240;28;20045;-47
2021/06/21 13:40:11;;;;;;;15.07;1.25;;;;;;;;;;5011357;28;20478;-48
2021/06/21 13:42:39;;;;;;;17.58;0.90;;;;;;;;;;5009489;28;20635;-47
2021/06/21 13:45:08;;;;;;;27.70;1.95;;;;;;;;;;5008385;28;20037;-49
2021/06/21 13:47:36;;;;;;;22.23;1.77;;;;;;;;;;5012251;28;20478;-46
2021/06/21 13:50:05;;;;;;;21.00;1.73;;;;;;;;;;5008673;28;20050;-47
2021/06/21 13:52:50;;;;;;;22.27;1.52;;;;;;;;;;5011619;28;20129;-48
2021/06/21 13:55:18;;;;;;;19.42;1.77;;;;;;;;;;5013269;28;20034;-49
2021/06/21 13:57:47;;;;;;;19.17;2.00;;;;;;;;;;5021367;28;20490;-48
2021/06/21 14:00:30;;;;;;;12.25;1.13;;;;;;;;;;5012616;28;20455;-46
2021/06/21 14:02:57;;;;;;;16.42;1.50;;;;;;;;;;5019105;28;20054;-46
2021/06/21 14:05:26;;;;;;;27.52;1.30;;;;;;;;;;4996024;28;20608;-49
2021/06/21 14:07:54;;;;;;;15.98;1.17;;;;;;;;;;5010477;28;20061;-51
2021/06/21 14:10:21;;;;;;;19.02;1.25;;;;;;;;;;5007082;28;20042;-48
2021/06/21 14:12:49;;;;;;;11.98;0.90;;;;;;;;;;5011659;28;20482;-48
2021/06/21 14:15:16;;;;;;;15.07;1.00;;;;;;;;;;5008269;28;20041;-47
2021/06/21 14:17:43;;;;;;;20.65;2.03;;;;;;;;;;5008193;28;20647;-45
2021/06/21 14:20:10;;;;;;;14.73;1.10;;;;;;;;;;5009583;28;20501;-47
2021/06/21 14:22:37;;;;;;;14.93;1.42;;;;;;;;;;5008319;28;20036;-44
2021/06/21 14:25:03;;;;;;;15.82;1.52;;;;;;;;;;5011416;28;20565;-47
2021/06/21 14:27:30;;;;;;;13.18;1.20;;;;;;;;;;5008862;28;20092;-47
2021/06/21 14:29:57;;;;;;;21.80;1.55;;;;;;;;;;5007769;28;20107;-47
2021/06/21 14:32:24;;;;;;;15.98;1.08;;;;;;;;;;5011301;28;20046;-48
2021/06/21 14:34:54;;;;;;;15.55;0.90;;;;;;;;;;5009152;28;20056;-46
2021/06/21 14:37:20;;;;;;;19.83;1.45;;;;;;;;;;4993398;28;20048;-49
2021/06/21 14:39:47;;;;;;;14.68;1.50;;;;;;;;;;5011556;28;20529;-46
2021/06/21 14:42:14;;;;;;;13.15;1.15;;;;;;;;;;5006421;28;20054;-50
2021/06/21 14:44:41;;;;;;;16.25;1.48;;;;;;;;;;5023358;28;20041;-50
2021/06/21 14:47:07;;;;;;;18.92;1.10;;;;;;;;;;5007835;28;20095;-45
2021/06/21 14:49:36;;;;;;;12.75;1.98;;;;;;;;;;5002080;28;20421;-50
2021/06/21 14:52:03;;;;;;;15.95;1.55;;;;;;;;;;5010058;28;20073;-47
2021/06/21 14:54:30;;;;;;;9.82;1.10;;;;;;;;;;5008907;28;20560;-49